KUVA/UVA METAR and TAF weather

Enter ICAO airport designator
Station Type Date Time Source
KUVA METAR 2022/12/04 12:55 UTC NOAA

KUVA 041255Z AUTO 04003KT 3SM DZ SCT003 OVC013 12/12 A3029 RMK AO2 T01160116


Station Type Date Time Source
KUVA Decoded METAR 2022/12/04 12:55 UTC NOAA

Uvalde, Garner Field Airport, TX, United States (KUVA) 29-12-40N 099-44-36W
Dec 04, 2022 - 07:55 AM EST / 2022.12.04 1255 UTC
Wind: from the NE (040 degrees) at 3 MPH (3 KT):0
Visibility: 3 mile(s):0
Sky conditions: overcast
Weather: drizzle
Temperature: 52.9 F (11.6 C)
Dew Point: 52.9 F (11.6 C)
Relative Humidity: 100%
Pressure (altimeter): 30.29 in. Hg (1025 hPa)
ob: KUVA 041255Z AUTO 04003KT 3SM DZ SCT003 OVC013 12/12 A3029 RMK AO2 T01160116
cycle: 13

Station Type Date Time Source
KUVA TAF UTC NOAA

Error!

Example: see airport list